INFORMACIÓN METAR y TAF
METAR FOR LPMA
ADDS - METARS form results

(1956 UTC 26 February 2020)
Data provider http://aviationweather.gov/metar/data/
 
METAR text: LPMA 261930Z 02014KT 9999 SCT013 BKN030 16/14 Q1026
Conditions at: LPMA (FUNCHAL/MADEIRA , PT) observed 1930 UTC 26 February 2020
Temperature: 16.0°C (61°F)
Dewpoint: 14.0°C (57°F) [RH = 88%]
Pressure (altimeter): 30.30 inches Hg (1026.0 mb)
Winds: from the NNE (20 degrees) at 16 MPH (14 knots; 7.2 m/s)
Visibility: 6 or more miles (10+ km)
Ceiling: 3000 feet AGL
Clouds: scattered clouds at 1300 feet AGL
broken clouds at 3000 feet AGL
Weather: no significant weather observed at this time

METAR text: LPMA 261900Z 02012KT 9999 SCT013 SCT030 17/14 Q1026
Conditions at: LPMA (FUNCHAL/MADEIRA , PT) observed 1900 UTC 26 February 2020
Temperature: 17.0°C (63°F)
Dewpoint: 14.0°C (57°F) [RH = 82%]
Pressure (altimeter): 30.30 inches Hg (1026.0 mb)
Winds: from the NNE (20 degrees) at 14 MPH (12 knots; 6.2 m/s)
Visibility: 6 or more miles (10+ km)
Ceiling: at least 12,000 feet AGL
Clouds: scattered clouds at 1300 feet AGL
scattered clouds at 3000 feet AGL
Weather: no significant weather observed at this time

Forecast for: LPMA (FUNCHAL/MADEIRA , PT)
Text: TAF LPMA 261700Z 2618/2718 03013KT 9999 SCT016
Forecast period: 1800 UTC 26 February 2020 to 1800 UTC 27 February 2020
Forecast type: FROM: standard forecast or significant change
Winds: from the NNE (30 degrees) at 15 MPH (13 knots; 6.7 m/s)
Visibility: 6 or more miles 10+ km)
Ceiling: at least 12,000 feet AGL
Clouds: scattered clouds at 1600 feet AGL
Weather: no significant weather forecast for this period
Text: TEMPO 2618/2621 03018G28KT SCT013 BKN030
Forecast period: 1800 to 2100 UTC 26 February 2020
Forecast type: TEMPORARY: The following changes expected for less than half the time period
Winds: from the NNE (30 degrees) at 21 MPH (18 knots; 9.3 m/s)
gusting to 32 MPH (28 knots; 14.4 m/s)
Visibility: missing
Ceiling: 3000 feet AGL
Clouds: scattered clouds at 1300 feet AGL
broken clouds at 3000 feet AGL
Weather: no significant weather forecast for this period

 MAPA DE AEROPUERTO

 INFORMACIÓN DE PISTA
Pista 05 Longitud 9110 ft Ancho 148 ft
Elevación 147 ft Umbral desplazado 480 ft Rumbo de pista 45
Pista 23 Longitud 9110 ft Ancho 148 ft
Elevación 192 ft Umbral desplazado 490 ft Rumbo de pista 225

 FRECUANCIAS DEL AEROPUERTO
Tipo APP Nombre APP Frecuencia 119.2 MHZ
Tipo TWR Nombre TWR Frecuencia 118.35 MHZ

 RADIO AYUDAS DEL AEROPUERTO
Tipo VOR-DME Nombre Madeira Frecuencia 112200 KHZ
Tipo NDB Nombre Madeira Frecuencia 318 KHZ